Terminal Aerodrome Forecast
Issued by NWS

Home | Current Version | Previous Version | Text Only | Print | Product List | Glossary On
Versions: 1 2 3 4 5 6 7 8 9 10 11 12 13 14 15 16 17 18 19
000
FTUS43 KOAX 260432 AAA
TAFSNY
TAF AMD
KSNY 260432Z 2605/2624 VRB05KT 2SM RA OVC015
     FM260600 13009KT P6SM -RA BKN050
     FM260900 10008KT 3SM -RA BR OVC007=

USA.gov is the U.S. government's official web portal to all federal, state and local government web resources and services.